sensor_id;sensor_type;location;lat;lon;timestamp;P1;durP1;ratioP1;P2;durP2;ratioP2
2474;SDS011;1248;48.694;10.160;2022-08-19T00:00:50;21.03;;;18.83;;
2474;SDS011;1248;48.694;10.160;2022-08-19T00:03:17;21.13;;;18.20;;
2474;SDS011;1248;48.694;10.160;2022-08-19T00:05:44;20.80;;;18.70;;
2474;SDS011;1248;48.694;10.160;2022-08-19T00:08:12;20.07;;;17.97;;
2474;SDS011;1248;48.694;10.160;2022-08-19T00:10:39;22.00;;;19.70;;
2474;SDS011;1248;48.694;10.160;2022-08-19T00:13:06;21.87;;;19.57;;
2474;SDS011;1248;48.694;10.160;2022-08-19T00:15:33;21.40;;;18.87;;
2474;SDS011;1248;48.694;10.160;2022-08-19T00:18:00;23.20;;;19.30;;
2474;SDS011;1248;48.694;10.160;2022-08-19T00:20:27;24.03;;;21.43;;
2474;SDS011;1248;48.694;10.160;2022-08-19T00:22:54;24.87;;;21.10;;
2474;SDS011;1248;48.694;10.160;2022-08-19T00:25:23;22.23;;;19.93;;
2474;SDS011;1248;48.694;10.160;2022-08-19T00:27:50;22.40;;;19.13;;
2474;SDS011;1248;48.694;10.160;2022-08-19T00:30:17;21.97;;;19.33;;
2474;SDS011;1248;48.694;10.160;2022-08-19T00:32:44;23.67;;;19.47;;
2474;SDS011;1248;48.694;10.160;2022-08-19T00:35:11;22.60;;;20.30;;
2474;SDS011;1248;48.694;10.160;2022-08-19T00:37:38;21.47;;;19.27;;
2474;SDS011;1248;48.694;10.160;2022-08-19T00:40:09;22.93;;;20.57;;
2474;SDS011;1248;48.694;10.160;2022-08-19T00:42:39;22.60;;;20.10;;
2474;SDS011;1248;48.694;10.160;2022-08-19T00:45:09;24.83;;;22.33;;
2474;SDS011;1248;48.694;10.160;2022-08-19T00:47:37;24.23;;;21.70;;
2474;SDS011;1248;48.694;10.160;2022-08-19T00:50:05;23.63;;;21.17;;
2474;SDS011;1248;48.694;10.160;2022-08-19T00:52:35;27.13;;;22.40;;
2474;SDS011;1248;48.694;10.160;2022-08-19T00:55:05;23.83;;;21.37;;
2474;SDS011;1248;48.694;10.160;2022-08-19T00:57:40;27.70;;;23.50;;
2474;SDS011;1248;48.694;10.160;2022-08-19T01:00:11;26.20;;;23.50;;
2474;SDS011;1248;48.694;10.160;2022-08-19T01:02:40;30.47;;;23.83;;
2474;SDS011;1248;48.694;10.160;2022-08-19T01:05:09;26.30;;;23.10;;
2474;SDS011;1248;48.694;10.160;2022-08-19T01:07:38;24.77;;;22.20;;
2474;SDS011;1248;48.694;10.160;2022-08-19T01:10:06;25.80;;;23.00;;
2474;SDS011;1248;48.694;10.160;2022-08-19T01:12:35;25.27;;;22.27;;
2474;SDS011;1248;48.694;10.160;2022-08-19T01:15:05;27.73;;;24.60;;
2474;SDS011;1248;48.694;10.160;2022-08-19T01:17:34;26.80;;;23.90;;
2474;SDS011;1248;48.694;10.160;2022-08-19T01:20:03;26.33;;;23.60;;
2474;SDS011;1248;48.694;10.160;2022-08-19T01:22:33;26.60;;;23.73;;
2474;SDS011;1248;48.694;10.160;2022-08-19T01:25:02;26.07;;;23.00;;
2474;SDS011;1248;48.694;10.160;2022-08-19T01:27:36;26.90;;;23.90;;
2474;SDS011;1248;48.694;10.160;2022-08-19T01:30:06;26.80;;;23.97;;
2474;SDS011;1248;48.694;10.160;2022-08-19T01:32:34;27.10;;;23.47;;
2474;SDS011;1248;48.694;10.160;2022-08-19T01:35:02;28.20;;;24.13;;
2474;SDS011;1248;48.694;10.160;2022-08-19T01:37:30;28.87;;;24.37;;
2474;SDS011;1248;48.694;10.160;2022-08-19T01:40:09;27.13;;;23.17;;
2474;SDS011;1248;48.694;10.160;2022-08-19T01:42:37;25.93;;;23.23;;
2474;SDS011;1248;48.694;10.160;2022-08-19T01:45:05;26.97;;;24.17;;
2474;SDS011;1248;48.694;10.160;2022-08-19T01:47:33;25.40;;;22.60;;
2474;SDS011;1248;48.694;10.160;2022-08-19T01:50:00;26.33;;;22.40;;
2474;SDS011;1248;48.694;10.160;2022-08-19T01:52:28;30.30;;;24.10;;
2474;SDS011;1248;48.694;10.160;2022-08-19T01:54:55;27.10;;;23.53;;
2474;SDS011;1248;48.694;10.160;2022-08-19T01:57:23;28.33;;;25.13;;
2474;SDS011;1248;48.694;10.160;2022-08-19T01:59:51;28.93;;;24.13;;
2474;SDS011;1248;48.694;10.160;2022-08-19T02:02:18;27.83;;;24.43;;
2474;SDS011;1248;48.694;10.160;2022-08-19T02:04:45;31.50;;;25.60;;
2474;SDS011;1248;48.694;10.160;2022-08-19T02:07:13;30.97;;;25.70;;
2474;SDS011;1248;48.694;10.160;2022-08-19T02:09:40;30.13;;;24.90;;
2474;SDS011;1248;48.694;10.160;2022-08-19T02:12:08;31.53;;;25.30;;
2474;SDS011;1248;48.694;10.160;2022-08-19T02:14:36;32.70;;;26.10;;
2474;SDS011;1248;48.694;10.160;2022-08-19T02:17:03;29.30;;;26.10;;
2474;SDS011;1248;48.694;10.160;2022-08-19T02:19:30;33.77;;;27.63;;
2474;SDS011;1248;48.694;10.160;2022-08-19T02:21:58;33.07;;;28.73;;
2474;SDS011;1248;48.694;10.160;2022-08-19T02:24:26;32.73;;;28.37;;
2474;SDS011;1248;48.694;10.160;2022-08-19T02:26:53;34.23;;;27.33;;
2474;SDS011;1248;48.694;10.160;2022-08-19T02:29:20;34.27;;;28.23;;
2474;SDS011;1248;48.694;10.160;2022-08-19T02:31:49;35.80;;;29.90;;
2474;SDS011;1248;48.694;10.160;2022-08-19T02:34:16;36.17;;;29.73;;
2474;SDS011;1248;48.694;10.160;2022-08-19T02:36:43;36.70;;;29.70;;
2474;SDS011;1248;48.694;10.160;2022-08-19T02:39:10;33.73;;;29.70;;
2474;SDS011;1248;48.694;10.160;2022-08-19T02:41:36;35.30;;;28.50;;
2474;SDS011;1248;48.694;10.160;2022-08-19T02:44:03;35.03;;;28.90;;
2474;SDS011;1248;48.694;10.160;2022-08-19T02:46:31;34.80;;;29.60;;
2474;SDS011;1248;48.694;10.160;2022-08-19T02:49:02;38.00;;;32.07;;
2474;SDS011;1248;48.694;10.160;2022-08-19T02:51:32;42.60;;;32.10;;
2474;SDS011;1248;48.694;10.160;2022-08-19T02:54:00;43.40;;;33.67;;
2474;SDS011;1248;48.694;10.160;2022-08-19T02:56:27;38.57;;;31.17;;
2474;SDS011;1248;48.694;10.160;2022-08-19T02:58:56;40.23;;;33.70;;
2474;SDS011;1248;48.694;10.160;2022-08-19T03:01:25;42.40;;;33.67;;
2474;SDS011;1248;48.694;10.160;2022-08-19T03:03:53;38.30;;;31.87;;
2474;SDS011;1248;48.694;10.160;2022-08-19T03:06:22;47.20;;;36.70;;
2474;SDS011;1248;48.694;10.160;2022-08-19T03:08:50;40.20;;;33.73;;
2474;SDS011;1248;48.694;10.160;2022-08-19T03:11:19;53.30;;;37.50;;
2474;SDS011;1248;48.694;10.160;2022-08-19T03:13:47;43.10;;;33.97;;
2474;SDS011;1248;48.694;10.160;2022-08-19T03:16:16;41.10;;;32.87;;
2474;SDS011;1248;48.694;10.160;2022-08-19T03:18:43;46.23;;;35.93;;
2474;SDS011;1248;48.694;10.160;2022-08-19T03:21:14;45.27;;;32.77;;
2474;SDS011;1248;48.694;10.160;2022-08-19T03:23:43;46.90;;;35.43;;
2474;SDS011;1248;48.694;10.160;2022-08-19T03:26:10;42.53;;;34.93;;
2474;SDS011;1248;48.694;10.160;2022-08-19T03:28:38;44.20;;;34.07;;
2474;SDS011;1248;48.694;10.160;2022-08-19T03:31:06;46.27;;;34.20;;
2474;SDS011;1248;48.694;10.160;2022-08-19T03:33:35;47.73;;;37.20;;
2474;SDS011;1248;48.694;10.160;2022-08-19T03:36:06;47.57;;;34.73;;
2474;SDS011;1248;48.694;10.160;2022-08-19T03:38:36;45.90;;;36.40;;
2474;SDS011;1248;48.694;10.160;2022-08-19T03:41:08;50.80;;;38.17;;
2474;SDS011;1248;48.694;10.160;2022-08-19T03:43:39;44.90;;;34.83;;
2474;SDS011;1248;48.694;10.160;2022-08-19T03:46:07;47.53;;;35.83;;
2474;SDS011;1248;48.694;10.160;2022-08-19T03:48:37;54.13;;;37.63;;
2474;SDS011;1248;48.694;10.160;2022-08-19T03:51:05;50.63;;;37.00;;
2474;SDS011;1248;48.694;10.160;2022-08-19T03:53:32;47.47;;;37.60;;
2474;SDS011;1248;48.694;10.160;2022-08-19T03:56:00;45.63;;;35.57;;
2474;SDS011;1248;48.694;10.160;2022-08-19T03:58:29;48.20;;;36.90;;
2474;SDS011;1248;48.694;10.160;2022-08-19T04:00:57;45.07;;;33.17;;
2474;SDS011;1248;48.694;10.160;2022-08-19T04:03:25;49.50;;;36.13;;
2474;SDS011;1248;48.694;10.160;2022-08-19T04:05:53;42.40;;;32.63;;
2474;SDS011;1248;48.694;10.160;2022-08-19T04:08:20;47.80;;;34.87;;
2474;SDS011;1248;48.694;10.160;2022-08-19T04:10:47;42.30;;;31.90;;
2474;SDS011;1248;48.694;10.160;2022-08-19T04:13:15;45.30;;;34.57;;
2474;SDS011;1248;48.694;10.160;2022-08-19T04:15:45;43.50;;;34.60;;
2474;SDS011;1248;48.694;10.160;2022-08-19T04:18:13;44.10;;;35.47;;
2474;SDS011;1248;48.694;10.160;2022-08-19T04:20:41;47.03;;;33.33;;
2474;SDS011;1248;48.694;10.160;2022-08-19T04:23:09;39.83;;;32.80;;
2474;SDS011;1248;48.694;10.160;2022-08-19T04:25:37;46.93;;;34.43;;
2474;SDS011;1248;48.694;10.160;2022-08-19T04:28:05;42.40;;;34.33;;
2474;SDS011;1248;48.694;10.160;2022-08-19T04:30:37;43.50;;;34.53;;
2474;SDS011;1248;48.694;10.160;2022-08-19T04:33:06;48.90;;;33.73;;
2474;SDS011;1248;48.694;10.160;2022-08-19T04:35:37;51.03;;;35.60;;
2474;SDS011;1248;48.694;10.160;2022-08-19T04:38:06;44.77;;;32.20;;
2474;SDS011;1248;48.694;10.160;2022-08-19T04:40:33;43.63;;;32.73;;
2474;SDS011;1248;48.694;10.160;2022-08-19T04:43:18;47.40;;;33.53;;
2474;SDS011;1248;48.694;10.160;2022-08-19T04:45:45;41.07;;;31.13;;
2474;SDS011;1248;48.694;10.160;2022-08-19T04:48:14;45.07;;;33.60;;
2474;SDS011;1248;48.694;10.160;2022-08-19T04:50:42;40.83;;;32.73;;
2474;SDS011;1248;48.694;10.160;2022-08-19T04:53:09;42.67;;;31.10;;
2474;SDS011;1248;48.694;10.160;2022-08-19T04:55:40;40.77;;;31.67;;
2474;SDS011;1248;48.694;10.160;2022-08-19T04:58:07;42.17;;;31.87;;
2474;SDS011;1248;48.694;10.160;2022-08-19T05:00:37;44.33;;;33.00;;
2474;SDS011;1248;48.694;10.160;2022-08-19T05:03:04;39.50;;;31.70;;
2474;SDS011;1248;48.694;10.160;2022-08-19T05:05:33;42.50;;;32.07;;
2474;SDS011;1248;48.694;10.160;2022-08-19T05:08:00;40.40;;;31.60;;
2474;SDS011;1248;48.694;10.160;2022-08-19T05:10:27;39.57;;;31.50;;
2474;SDS011;1248;48.694;10.160;2022-08-19T05:12:55;47.40;;;32.67;;
2474;SDS011;1248;48.694;10.160;2022-08-19T05:15:23;45.13;;;34.53;;
2474;SDS011;1248;48.694;10.160;2022-08-19T05:17:50;45.70;;;32.50;;
2474;SDS011;1248;48.694;10.160;2022-08-19T05:20:38;40.53;;;32.03;;
2474;SDS011;1248;48.694;10.160;2022-08-19T05:23:23;42.50;;;32.93;;
2474;SDS011;1248;48.694;10.160;2022-08-19T05:25:50;39.87;;;31.37;;
2474;SDS011;1248;48.694;10.160;2022-08-19T05:28:17;43.93;;;32.90;;
2474;SDS011;1248;48.694;10.160;2022-08-19T05:30:45;39.33;;;31.50;;
2474;SDS011;1248;48.694;10.160;2022-08-19T05:33:13;43.47;;;31.33;;
2474;SDS011;1248;48.694;10.160;2022-08-19T05:35:42;45.07;;;33.27;;
2474;SDS011;1248;48.694;10.160;2022-08-19T05:38:10;42.33;;;31.67;;
2474;SDS011;1248;48.694;10.160;2022-08-19T05:40:38;49.23;;;35.90;;
2474;SDS011;1248;48.694;10.160;2022-08-19T05:43:06;44.37;;;32.50;;
2474;SDS011;1248;48.694;10.160;2022-08-19T05:45:38;43.43;;;32.80;;
2474;SDS011;1248;48.694;10.160;2022-08-19T05:48:07;41.33;;;32.70;;
2474;SDS011;1248;48.694;10.160;2022-08-19T05:50:37;41.50;;;32.67;;
2474;SDS011;1248;48.694;10.160;2022-08-19T05:53:05;45.50;;;32.03;;
2474;SDS011;1248;48.694;10.160;2022-08-19T05:55:34;40.63;;;31.40;;
2474;SDS011;1248;48.694;10.160;2022-08-19T05:58:02;43.57;;;31.20;;
2474;SDS011;1248;48.694;10.160;2022-08-19T06:00:29;43.53;;;31.70;;
2474;SDS011;1248;48.694;10.160;2022-08-19T06:02:56;48.43;;;33.33;;
2474;SDS011;1248;48.694;10.160;2022-08-19T06:05:25;44.63;;;31.90;;
2474;SDS011;1248;48.694;10.160;2022-08-19T06:07:52;42.67;;;31.90;;
2474;SDS011;1248;48.694;10.160;2022-08-19T06:10:21;44.63;;;32.60;;
2474;SDS011;1248;48.694;10.160;2022-08-19T06:12:49;46.73;;;32.20;;
2474;SDS011;1248;48.694;10.160;2022-08-19T06:15:16;44.33;;;32.27;;
2474;SDS011;1248;48.694;10.160;2022-08-19T06:17:43;43.63;;;31.27;;
2474;SDS011;1248;48.694;10.160;2022-08-19T06:20:11;44.77;;;31.77;;
2474;SDS011;1248;48.694;10.160;2022-08-19T06:22:41;43.73;;;31.90;;
2474;SDS011;1248;48.694;10.160;2022-08-19T06:25:09;42.80;;;31.43;;
2474;SDS011;1248;48.694;10.160;2022-08-19T06:27:38;49.90;;;32.53;;
2474;SDS011;1248;48.694;10.160;2022-08-19T06:30:06;44.77;;;32.47;;
2474;SDS011;1248;48.694;10.160;2022-08-19T06:32:34;44.40;;;31.30;;
2474;SDS011;1248;48.694;10.160;2022-08-19T06:35:01;41.57;;;29.70;;
2474;SDS011;1248;48.694;10.160;2022-08-19T06:37:28;44.87;;;32.60;;
2474;SDS011;1248;48.694;10.160;2022-08-19T06:39:55;45.20;;;33.67;;
2474;SDS011;1248;48.694;10.160;2022-08-19T06:42:22;41.60;;;30.80;;
2474;SDS011;1248;48.694;10.160;2022-08-19T06:44:50;37.67;;;29.67;;
2474;SDS011;1248;48.694;10.160;2022-08-19T06:47:18;42.10;;;30.97;;
2474;SDS011;1248;48.694;10.160;2022-08-19T06:49:47;40.90;;;29.23;;
2474;SDS011;1248;48.694;10.160;2022-08-19T06:52:14;43.40;;;33.63;;
2474;SDS011;1248;48.694;10.160;2022-08-19T06:54:41;41.07;;;30.60;;
2474;SDS011;1248;48.694;10.160;2022-08-19T06:57:08;44.00;;;31.83;;
2474;SDS011;1248;48.694;10.160;2022-08-19T06:59:40;49.43;;;33.60;;
2474;SDS011;1248;48.694;10.160;2022-08-19T07:02:08;45.57;;;32.90;;
2474;SDS011;1248;48.694;10.160;2022-08-19T07:04:36;44.87;;;34.63;;
2474;SDS011;1248;48.694;10.160;2022-08-19T07:07:05;50.80;;;34.70;;
2474;SDS011;1248;48.694;10.160;2022-08-19T07:09:35;45.80;;;32.47;;
2474;SDS011;1248;48.694;10.160;2022-08-19T07:12:03;46.77;;;33.57;;
2474;SDS011;1248;48.694;10.160;2022-08-19T07:14:30;42.73;;;32.03;;
2474;SDS011;1248;48.694;10.160;2022-08-19T07:16:57;42.17;;;33.50;;
2474;SDS011;1248;48.694;10.160;2022-08-19T07:19:26;44.00;;;31.83;;
2474;SDS011;1248;48.694;10.160;2022-08-19T07:21:54;49.73;;;33.60;;
2474;SDS011;1248;48.694;10.160;2022-08-19T07:24:22;53.53;;;34.57;;
2474;SDS011;1248;48.694;10.160;2022-08-19T07:26:52;40.60;;;32.23;;
2474;SDS011;1248;48.694;10.160;2022-08-19T07:29:21;46.77;;;33.83;;
2474;SDS011;1248;48.694;10.160;2022-08-19T07:31:49;45.20;;;31.70;;
2474;SDS011;1248;48.694;10.160;2022-08-19T07:34:16;50.67;;;34.80;;
2474;SDS011;1248;48.694;10.160;2022-08-19T07:36:45;45.87;;;31.03;;
2474;SDS011;1248;48.694;10.160;2022-08-19T07:39:14;42.97;;;31.57;;
2474;SDS011;1248;48.694;10.160;2022-08-19T07:41:43;45.73;;;32.83;;
2474;SDS011;1248;48.694;10.160;2022-08-19T07:44:11;52.37;;;35.90;;
2474;SDS011;1248;48.694;10.160;2022-08-19T07:46:40;55.07;;;36.40;;
2474;SDS011;1248;48.694;10.160;2022-08-19T07:49:10;48.83;;;33.43;;
2474;SDS011;1248;48.694;10.160;2022-08-19T07:51:43;48.20;;;33.57;;
2474;SDS011;1248;48.694;10.160;2022-08-19T07:54:11;49.17;;;35.03;;
2474;SDS011;1248;48.694;10.160;2022-08-19T07:56:39;48.10;;;34.97;;
2474;SDS011;1248;48.694;10.160;2022-08-19T07:59:06;48.97;;;35.63;;
2474;SDS011;1248;48.694;10.160;2022-08-19T08:01:35;54.53;;;37.33;;
2474;SDS011;1248;48.694;10.160;2022-08-19T08:04:03;50.80;;;36.30;;
2474;SDS011;1248;48.694;10.160;2022-08-19T08:06:47;48.70;;;34.07;;
2474;SDS011;1248;48.694;10.160;2022-08-19T08:09:35;50.27;;;34.63;;
2474;SDS011;1248;48.694;10.160;2022-08-19T08:12:05;50.10;;;35.33;;
2474;SDS011;1248;48.694;10.160;2022-08-19T08:14:36;50.77;;;36.67;;
2474;SDS011;1248;48.694;10.160;2022-08-19T08:17:05;50.57;;;36.60;;
2474;SDS011;1248;48.694;10.160;2022-08-19T08:19:33;51.67;;;36.17;;
2474;SDS011;1248;48.694;10.160;2022-08-19T08:22:00;47.23;;;33.60;;
2474;SDS011;1248;48.694;10.160;2022-08-19T08:24:28;51.90;;;35.17;;
2474;SDS011;1248;48.694;10.160;2022-08-19T08:26:58;48.30;;;34.57;;
2474;SDS011;1248;48.694;10.160;2022-08-19T08:29:26;50.00;;;36.40;;
2474;SDS011;1248;48.694;10.160;2022-08-19T08:31:55;52.07;;;36.10;;
2474;SDS011;1248;48.694;10.160;2022-08-19T08:34:22;53.93;;;35.37;;
2474;SDS011;1248;48.694;10.160;2022-08-19T08:36:49;48.80;;;35.40;;
2474;SDS011;1248;48.694;10.160;2022-08-19T08:39:19;51.33;;;35.47;;
2474;SDS011;1248;48.694;10.160;2022-08-19T08:41:50;55.03;;;36.50;;
2474;SDS011;1248;48.694;10.160;2022-08-19T08:44:21;48.80;;;35.23;;
2474;SDS011;1248;48.694;10.160;2022-08-19T08:46:51;48.87;;;35.50;;
2474;SDS011;1248;48.694;10.160;2022-08-19T08:49:24;48.60;;;34.60;;
2474;SDS011;1248;48.694;10.160;2022-08-19T08:51:58;52.30;;;37.53;;
2474;SDS011;1248;48.694;10.160;2022-08-19T08:54:30;54.97;;;36.83;;
2474;SDS011;1248;48.694;10.160;2022-08-19T08:57:02;52.57;;;36.57;;
2474;SDS011;1248;48.694;10.160;2022-08-19T08:59:33;53.00;;;35.77;;
2474;SDS011;1248;48.694;10.160;2022-08-19T09:02:02;50.00;;;34.63;;
2474;SDS011;1248;48.694;10.160;2022-08-19T09:04:29;49.03;;;34.60;;
2474;SDS011;1248;48.694;10.160;2022-08-19T09:06:58;44.70;;;34.57;;
2474;SDS011;1248;48.694;10.160;2022-08-19T09:09:37;51.40;;;36.50;;
2474;SDS011;1248;48.694;10.160;2022-08-19T09:12:08;47.63;;;37.23;;
2474;SDS011;1248;48.694;10.160;2022-08-19T09:14:51;50.43;;;36.07;;
2474;SDS011;1248;48.694;10.160;2022-08-19T09:17:21;49.87;;;35.37;;
2474;SDS011;1248;48.694;10.160;2022-08-19T09:19:53;47.20;;;34.20;;
2474;SDS011;1248;48.694;10.160;2022-08-19T09:22:22;50.17;;;34.73;;
2474;SDS011;1248;48.694;10.160;2022-08-19T09:24:50;49.90;;;35.37;;
2474;SDS011;1248;48.694;10.160;2022-08-19T09:27:18;62.33;;;36.63;;
2474;SDS011;1248;48.694;10.160;2022-08-19T09:29:47;56.23;;;39.37;;
2474;SDS011;1248;48.694;10.160;2022-08-19T09:32:15;54.63;;;38.10;;
2474;SDS011;1248;48.694;10.160;2022-08-19T09:34:42;49.83;;;36.70;;
2474;SDS011;1248;48.694;10.160;2022-08-19T09:37:09;57.07;;;38.33;;
2474;SDS011;1248;48.694;10.160;2022-08-19T09:39:37;52.90;;;38.70;;
2474;SDS011;1248;48.694;10.160;2022-08-19T09:42:04;56.77;;;39.13;;
2474;SDS011;1248;48.694;10.160;2022-08-19T09:44:35;55.70;;;39.27;;
2474;SDS011;1248;48.694;10.160;2022-08-19T09:47:04;56.80;;;40.07;;
2474;SDS011;1248;48.694;10.160;2022-08-19T09:49:31;52.80;;;40.67;;
2474;SDS011;1248;48.694;10.160;2022-08-19T09:51:58;63.07;;;41.07;;
2474;SDS011;1248;48.694;10.160;2022-08-19T09:54:26;65.90;;;41.53;;
2474;SDS011;1248;48.694;10.160;2022-08-19T09:56:54;58.43;;;42.47;;
2474;SDS011;1248;48.694;10.160;2022-08-19T09:59:22;69.50;;;43.27;;
2474;SDS011;1248;48.694;10.160;2022-08-19T10:01:49;69.90;;;44.83;;
2474;SDS011;1248;48.694;10.160;2022-08-19T10:04:18;69.57;;;45.03;;
2474;SDS011;1248;48.694;10.160;2022-08-19T10:06:46;60.80;;;42.47;;
2474;SDS011;1248;48.694;10.160;2022-08-19T10:09:15;72.87;;;43.50;;
2474;SDS011;1248;48.694;10.160;2022-08-19T10:11:44;63.70;;;42.27;;
2474;SDS011;1248;48.694;10.160;2022-08-19T10:14:13;62.80;;;41.30;;
2474;SDS011;1248;48.694;10.160;2022-08-19T10:16:40;60.90;;;43.30;;
2474;SDS011;1248;48.694;10.160;2022-08-19T10:19:08;61.93;;;42.60;;
2474;SDS011;1248;48.694;10.160;2022-08-19T10:21:37;61.17;;;40.23;;
2474;SDS011;1248;48.694;10.160;2022-08-19T10:24:05;64.00;;;39.90;;
2474;SDS011;1248;48.694;10.160;2022-08-19T10:26:33;59.37;;;40.77;;
2474;SDS011;1248;48.694;10.160;2022-08-19T10:29:02;60.20;;;41.80;;
2474;SDS011;1248;48.694;10.160;2022-08-19T10:31:32;54.00;;;36.03;;
2474;SDS011;1248;48.694;10.160;2022-08-19T10:34:00;51.60;;;37.43;;
2474;SDS011;1248;48.694;10.160;2022-08-19T10:36:28;58.67;;;37.70;;
2474;SDS011;1248;48.694;10.160;2022-08-19T10:38:59;48.60;;;38.40;;
2474;SDS011;1248;48.694;10.160;2022-08-19T10:41:29;53.47;;;35.70;;
2474;SDS011;1248;48.694;10.160;2022-08-19T10:43:58;55.90;;;39.00;;
2474;SDS011;1248;48.694;10.160;2022-08-19T10:46:26;56.93;;;38.53;;
2474;SDS011;1248;48.694;10.160;2022-08-19T10:48:56;58.17;;;39.90;;
2474;SDS011;1248;48.694;10.160;2022-08-19T10:51:23;53.43;;;38.23;;
2474;SDS011;1248;48.694;10.160;2022-08-19T10:54:10;54.03;;;39.73;;
2474;SDS011;1248;48.694;10.160;2022-08-19T10:56:37;47.40;;;34.47;;
2474;SDS011;1248;48.694;10.160;2022-08-19T10:59:20;48.50;;;37.83;;
2474;SDS011;1248;48.694;10.160;2022-08-19T11:01:48;50.53;;;35.87;;
2474;SDS011;1248;48.694;10.160;2022-08-19T11:04:16;53.77;;;36.23;;
2474;SDS011;1248;48.694;10.160;2022-08-19T11:06:44;54.60;;;37.90;;
2474;SDS011;1248;48.694;10.160;2022-08-19T11:09:14;45.23;;;32.90;;
2474;SDS011;1248;48.694;10.160;2022-08-19T11:11:42;49.50;;;35.23;;
2474;SDS011;1248;48.694;10.160;2022-08-19T11:14:10;52.37;;;36.07;;
2474;SDS011;1248;48.694;10.160;2022-08-19T11:16:39;50.33;;;34.63;;
2474;SDS011;1248;48.694;10.160;2022-08-19T11:19:08;46.20;;;34.57;;
2474;SDS011;1248;48.694;10.160;2022-08-19T11:21:39;45.07;;;33.50;;
2474;SDS011;1248;48.694;10.160;2022-08-19T11:24:09;50.53;;;34.13;;
2474;SDS011;1248;48.694;10.160;2022-08-19T11:26:39;44.83;;;30.73;;
2474;SDS011;1248;48.694;10.160;2022-08-19T11:29:07;45.23;;;31.43;;
2474;SDS011;1248;48.694;10.160;2022-08-19T11:31:37;43.43;;;32.07;;
2474;SDS011;1248;48.694;10.160;2022-08-19T11:34:06;43.77;;;32.57;;
2474;SDS011;1248;48.694;10.160;2022-08-19T11:36:34;47.03;;;34.67;;
2474;SDS011;1248;48.694;10.160;2022-08-19T11:39:01;48.00;;;35.20;;
2474;SDS011;1248;48.694;10.160;2022-08-19T11:41:29;50.90;;;34.00;;
2474;SDS011;1248;48.694;10.160;2022-08-19T11:43:57;40.70;;;32.37;;
2474;SDS011;1248;48.694;10.160;2022-08-19T11:46:25;45.53;;;32.70;;
2474;SDS011;1248;48.694;10.160;2022-08-19T11:48:54;42.80;;;30.67;;
2474;SDS011;1248;48.694;10.160;2022-08-19T11:51:22;45.50;;;32.10;;
2474;SDS011;1248;48.694;10.160;2022-08-19T11:53:51;40.10;;;29.93;;
2474;SDS011;1248;48.694;10.160;2022-08-19T11:56:19;32.70;;;26.40;;
2474;SDS011;1248;48.694;10.160;2022-08-19T11:58:46;33.80;;;26.73;;
2474;SDS011;1248;48.694;10.160;2022-08-19T12:01:15;32.33;;;24.80;;
2474;SDS011;1248;48.694;10.160;2022-08-19T12:03:44;34.77;;;26.13;;
2474;SDS011;1248;48.694;10.160;2022-08-19T12:06:14;27.10;;;22.57;;
2474;SDS011;1248;48.694;10.160;2022-08-19T12:08:43;31.20;;;22.97;;
2474;SDS011;1248;48.694;10.160;2022-08-19T12:11:11;25.83;;;19.20;;
2474;SDS011;1248;48.694;10.160;2022-08-19T12:13:39;25.47;;;20.73;;
2474;SDS011;1248;48.694;10.160;2022-08-19T12:16:07;26.00;;;19.57;;
2474;SDS011;1248;48.694;10.160;2022-08-19T12:18:39;21.20;;;17.70;;
2474;SDS011;1248;48.694;10.160;2022-08-19T12:21:09;16.60;;;14.20;;
2474;SDS011;1248;48.694;10.160;2022-08-19T12:23:39;17.90;;;14.43;;
2474;SDS011;1248;48.694;10.160;2022-08-19T12:26:06;16.90;;;14.30;;
2474;SDS011;1248;48.694;10.160;2022-08-19T12:28:33;16.20;;;13.97;;
2474;SDS011;1248;48.694;10.160;2022-08-19T12:31:00;14.23;;;12.73;;
2474;SDS011;1248;48.694;10.160;2022-08-19T12:33:27;13.27;;;11.87;;
2474;SDS011;1248;48.694;10.160;2022-08-19T12:35:59;14.37;;;12.90;;
2474;SDS011;1248;48.694;10.160;2022-08-19T12:38:27;13.70;;;11.80;;
2474;SDS011;1248;48.694;10.160;2022-08-19T12:40:54;16.40;;;14.10;;
2474;SDS011;1248;48.694;10.160;2022-08-19T12:43:21;19.70;;;16.27;;
2474;SDS011;1248;48.694;10.160;2022-08-19T12:45:49;17.73;;;13.90;;
2474;SDS011;1248;48.694;10.160;2022-08-19T12:48:16;20.30;;;17.30;;
2474;SDS011;1248;48.694;10.160;2022-08-19T12:50:44;21.83;;;19.47;;
2474;SDS011;1248;48.694;10.160;2022-08-19T12:53:14;26.37;;;19.53;;
2474;SDS011;1248;48.694;10.160;2022-08-19T12:55:41;25.60;;;20.77;;
2474;SDS011;1248;48.694;10.160;2022-08-19T12:58:09;25.07;;;21.60;;
2474;SDS011;1248;48.694;10.160;2022-08-19T13:00:38;27.00;;;20.70;;
2474;SDS011;1248;48.694;10.160;2022-08-19T13:03:06;27.10;;;22.50;;
2474;SDS011;1248;48.694;10.160;2022-08-19T13:05:33;23.53;;;20.13;;
2474;SDS011;1248;48.694;10.160;2022-08-19T13:08:01;28.03;;;22.00;;
2474;SDS011;1248;48.694;10.160;2022-08-19T13:10:30;22.90;;;20.00;;
2474;SDS011;1248;48.694;10.160;2022-08-19T13:13:00;21.17;;;17.57;;
2474;SDS011;1248;48.694;10.160;2022-08-19T13:15:29;21.27;;;16.47;;
2474;SDS011;1248;48.694;10.160;2022-08-19T13:17:59;19.60;;;16.53;;
2474;SDS011;1248;48.694;10.160;2022-08-19T13:20:27;19.43;;;17.30;;
2474;SDS011;1248;48.694;10.160;2022-08-19T13:22:54;23.80;;;18.87;;
2474;SDS011;1248;48.694;10.160;2022-08-19T13:25:22;17.07;;;15.03;;
2474;SDS011;1248;48.694;10.160;2022-08-19T13:27:52;13.80;;;12.40;;
2474;SDS011;1248;48.694;10.160;2022-08-19T13:30:20;15.77;;;13.13;;
2474;SDS011;1248;48.694;10.160;2022-08-19T13:33:05;16.07;;;13.50;;
2474;SDS011;1248;48.694;10.160;2022-08-19T13:35:40;12.77;;;11.40;;
2474;SDS011;1248;48.694;10.160;2022-08-19T13:38:08;16.07;;;14.20;;
2474;SDS011;1248;48.694;10.160;2022-08-19T13:40:36;13.33;;;11.67;;
2474;SDS011;1248;48.694;10.160;2022-08-19T13:43:04;13.47;;;11.67;;
2474;SDS011;1248;48.694;10.160;2022-08-19T13:45:32;14.60;;;12.00;;
2474;SDS011;1248;48.694;10.160;2022-08-19T13:48:00;11.13;;;10.07;;
2474;SDS011;1248;48.694;10.160;2022-08-19T13:50:30;12.70;;;10.97;;
2474;SDS011;1248;48.694;10.160;2022-08-19T13:52:57;11.97;;;9.73;;
2474;SDS011;1248;48.694;10.160;2022-08-19T13:55:25;15.67;;;12.13;;
2474;SDS011;1248;48.694;10.160;2022-08-19T13:57:53;12.50;;;10.83;;
2474;SDS011;1248;48.694;10.160;2022-08-19T14:00:22;16.53;;;11.10;;
2474;SDS011;1248;48.694;10.160;2022-08-19T14:02:52;14.60;;;11.63;;
2474;SDS011;1248;48.694;10.160;2022-08-19T14:05:21;14.40;;;12.90;;
2474;SDS011;1248;48.694;10.160;2022-08-19T14:07:49;15.20;;;11.70;;
2474;SDS011;1248;48.694;10.160;2022-08-19T14:10:16;15.50;;;13.80;;
2474;SDS011;1248;48.694;10.160;2022-08-19T14:12:44;19.10;;;14.90;;
2474;SDS011;1248;48.694;10.160;2022-08-19T14:15:12;19.33;;;14.40;;
2474;SDS011;1248;48.694;10.160;2022-08-19T14:17:42;21.40;;;15.20;;
2474;SDS011;1248;48.694;10.160;2022-08-19T14:20:12;19.00;;;15.93;;
2474;SDS011;1248;48.694;10.160;2022-08-19T14:22:41;21.43;;;17.30;;
2474;SDS011;1248;48.694;10.160;2022-08-19T14:25:10;21.27;;;16.17;;
2474;SDS011;1248;48.694;10.160;2022-08-19T14:27:41;25.33;;;16.27;;
2474;SDS011;1248;48.694;10.160;2022-08-19T14:30:09;25.50;;;17.73;;
2474;SDS011;1248;48.694;10.160;2022-08-19T14:32:38;26.87;;;17.83;;
2474;SDS011;1248;48.694;10.160;2022-08-19T14:35:06;23.10;;;16.90;;
2474;SDS011;1248;48.694;10.160;2022-08-19T14:37:34;21.50;;;15.47;;
2474;SDS011;1248;48.694;10.160;2022-08-19T14:40:02;21.07;;;16.60;;
2474;SDS011;1248;48.694;10.160;2022-08-19T14:42:30;25.23;;;16.97;;